createdAt,value
2023-02-11T00:00:45.565Z,18.80
2023-02-11T00:03:14.754Z,21.03
2023-02-11T00:05:42.455Z,19.63
2023-02-11T00:08:10.060Z,20.60
2023-02-11T00:10:37.762Z,18.83
2023-02-11T00:13:05.354Z,20.23
2023-02-11T00:15:32.950Z,18.53
2023-02-11T00:18:00.759Z,20.77
2023-02-11T00:20:29.889Z,21.23
2023-02-11T00:22:57.603Z,23.87
2023-02-11T00:25:25.335Z,21.40
2023-02-11T00:27:52.973Z,21.80
2023-02-11T00:30:20.792Z,21.13
2023-02-11T00:32:48.392Z,20.27
2023-02-11T00:35:16.101Z,23.60
2023-02-11T00:37:45.060Z,23.37
2023-02-11T00:40:13.099Z,21.07
2023-02-11T00:42:40.769Z,23.47
2023-02-11T00:45:09.736Z,22.67
2023-02-11T00:47:37.512Z,23.67
2023-02-11T00:50:08.862Z,22.37
2023-02-11T00:52:36.578Z,23.23
2023-02-11T00:55:06.157Z,25.20
2023-02-11T00:57:33.838Z,20.97
2023-02-11T01:00:01.435Z,22.30
2023-02-11T01:02:29.322Z,23.80
2023-02-11T01:04:58.479Z,24.70
2023-02-11T01:07:26.229Z,22.80
2023-02-11T01:09:54.715Z,22.47
2023-02-11T01:12:24.251Z,21.97
2023-02-11T01:14:54.788Z,22.30
2023-02-11T01:17:22.422Z,22.10
2023-02-11T01:19:49.874Z,22.70
2023-02-11T01:22:17.383Z,21.80
2023-02-11T01:24:44.854Z,23.00
2023-02-11T01:27:12.321Z,22.00
2023-02-11T01:29:41.251Z,22.73
2023-02-11T01:32:08.781Z,24.67
2023-02-11T01:34:36.276Z,24.60
2023-02-11T01:37:03.769Z,23.70
2023-02-11T01:39:34.084Z,21.93
2023-02-11T01:42:01.904Z,23.13
2023-02-11T01:44:32.188Z,21.03
2023-02-11T01:47:01.778Z,22.03
2023-02-11T01:49:31.935Z,25.43
2023-02-11T01:52:02.874Z,22.77
2023-02-11T01:55:01.597Z,22.40
2023-02-11T01:57:32.406Z,21.43
2023-02-11T02:00:07.725Z,23.87
2023-02-11T02:02:40.749Z,21.03
2023-02-11T02:05:11.306Z,22.97
2023-02-11T02:07:43.876Z,24.27
2023-02-11T02:10:18.773Z,23.03
2023-02-11T02:12:46.298Z,22.07
2023-02-11T02:15:26.074Z,21.17
2023-02-11T02:18:00.016Z,22.07
2023-02-11T02:20:53.590Z,22.80
2023-02-11T02:23:34.297Z,26.10
2023-02-11T02:26:22.063Z,23.37
2023-02-11T02:29:21.950Z,23.73
2023-02-11T02:32:00.469Z,23.57
2023-02-11T02:34:31.386Z,22.60
2023-02-11T02:37:02.232Z,23.20
2023-02-11T02:39:33.836Z,23.30
2023-02-11T02:42:01.923Z,22.50
2023-02-11T02:44:30.078Z,24.57
2023-02-11T02:46:57.874Z,23.80
2023-02-11T02:49:25.375Z,22.73
2023-02-11T02:52:06.742Z,20.93
2023-02-11T02:54:52.051Z,23.40
2023-02-11T02:57:30.354Z,23.57
2023-02-11T03:00:11.986Z,23.17
2023-02-11T03:02:46.028Z,21.57
2023-02-11T03:05:19.130Z,23.17
2023-02-11T03:07:53.795Z,25.13
2023-02-11T03:10:26.563Z,22.63
2023-02-11T03:12:55.383Z,22.30
2023-02-11T03:15:24.422Z,23.40
2023-02-11T03:17:55.362Z,25.17
2023-02-11T03:20:23.975Z,26.37
2023-02-11T03:22:56.513Z,23.43
2023-02-11T03:25:28.618Z,23.57
2023-02-11T03:28:04.265Z,24.17
2023-02-11T03:30:35.111Z,24.07
2023-02-11T03:33:07.894Z,23.23
2023-02-11T03:35:41.236Z,24.43
2023-02-11T03:38:13.608Z,21.93
2023-02-11T03:40:41.776Z,24.20
2023-02-11T03:43:11.424Z,23.40
2023-02-11T03:45:39.632Z,23.93
2023-02-11T03:48:12.124Z,23.30
2023-02-11T03:50:40.865Z,22.93
2023-02-11T03:53:10.327Z,23.40
2023-02-11T03:55:40.098Z,24.17
2023-02-11T03:58:07.989Z,23.63
2023-02-11T04:00:37.446Z,22.17
2023-02-11T04:03:05.396Z,24.93
2023-02-11T04:05:33.434Z,23.90
2023-02-11T04:08:00.987Z,23.60
2023-02-11T04:10:29.999Z,21.60
2023-02-11T04:12:57.717Z,21.80
2023-02-11T04:15:25.242Z,22.47
2023-02-11T04:17:52.770Z,25.60
2023-02-11T04:20:20.514Z,23.30
2023-02-11T04:22:47.993Z,23.33
2023-02-11T04:25:15.546Z,25.30
2023-02-11T04:27:44.404Z,21.30
2023-02-11T04:30:12.698Z,20.50
2023-02-11T04:32:40.333Z,21.33
2023-02-11T04:35:08.250Z,22.50
2023-02-11T04:37:35.909Z,22.83
2023-02-11T04:40:03.398Z,23.03
2023-02-11T04:42:30.936Z,21.27
2023-02-11T04:44:59.798Z,20.80
2023-02-11T04:47:27.253Z,21.20
2023-02-11T04:49:54.837Z,20.67
2023-02-11T04:52:22.315Z,20.50
2023-02-11T04:54:49.805Z,19.73
2023-02-11T04:57:17.287Z,21.77
2023-02-11T04:59:44.789Z,21.93
2023-02-11T05:02:13.656Z,20.37
2023-02-11T05:04:41.266Z,22.30
2023-02-11T05:07:08.715Z,19.57
2023-02-11T05:09:36.235Z,20.03
2023-02-11T05:12:03.772Z,20.20
2023-02-11T05:14:31.294Z,19.30
2023-02-11T05:16:58.898Z,20.57
2023-02-11T05:19:27.839Z,21.03
2023-02-11T05:22:02.535Z,21.40
2023-02-11T05:24:30.355Z,18.60
2023-02-11T05:26:57.909Z,19.77
2023-02-11T05:29:25.361Z,20.20
2023-02-11T05:31:53.101Z,18.80
2023-02-11T05:34:20.594Z,20.50
2023-02-11T05:36:49.441Z,21.40
2023-02-11T05:39:16.945Z,20.67
2023-02-11T05:41:44.399Z,19.83
2023-02-11T05:44:11.900Z,22.40
2023-02-11T05:46:39.416Z,16.87
2023-02-11T05:49:07.009Z,18.30
2023-02-11T05:51:34.459Z,17.33
2023-02-11T05:54:03.586Z,19.53
2023-02-11T05:56:31.071Z,19.73
2023-02-11T05:58:59.605Z,19.60
2023-02-11T06:01:27.171Z,19.93
2023-02-11T06:03:54.896Z,18.40
2023-02-11T06:06:22.459Z,18.40
2023-02-11T06:08:49.952Z,17.60
2023-02-11T06:11:20.177Z,19.97
2023-02-11T06:13:47.647Z,20.10
2023-02-11T06:16:15.256Z,19.53
2023-02-11T06:18:42.778Z,20.37
2023-02-11T06:21:11.564Z,20.53
2023-02-11T06:23:39.512Z,19.10
2023-02-11T06:26:08.738Z,19.07
2023-02-11T06:28:39.969Z,18.70
2023-02-11T06:31:09.737Z,18.40
2023-02-11T06:33:37.380Z,16.27
2023-02-11T06:36:06.197Z,17.77
2023-02-11T06:38:33.708Z,19.33
2023-02-11T06:41:01.173Z,18.70
2023-02-11T06:43:28.656Z,19.70
2023-02-11T06:45:57.503Z,20.80
2023-02-11T06:48:25.075Z,19.57
2023-02-11T06:50:52.543Z,18.50
2023-02-11T06:53:20.062Z,20.00
2023-02-11T06:55:47.545Z,19.57
2023-02-11T06:58:15.377Z,17.77
2023-02-11T07:00:42.846Z,17.70
2023-02-11T07:03:11.752Z,17.13
2023-02-11T07:05:39.503Z,18.90
2023-02-11T07:08:07.452Z,18.00
2023-02-11T07:10:35.161Z,19.30
2023-02-11T07:13:03.053Z,19.30
2023-02-11T07:15:30.527Z,19.70
2023-02-11T07:17:58.022Z,19.43
2023-02-11T07:20:27.222Z,18.97
2023-02-11T07:22:54.946Z,20.20
2023-02-11T07:25:22.574Z,19.10
2023-02-11T07:27:50.195Z,19.67
2023-02-11T07:30:17.809Z,18.97
2023-02-11T07:32:45.291Z,19.37
2023-02-11T07:35:12.760Z,18.40
2023-02-11T07:37:41.920Z,19.20
2023-02-11T07:40:10.232Z,19.50
2023-02-11T07:42:37.818Z,18.17
2023-02-11T07:45:06.102Z,19.50
2023-02-11T07:47:35.212Z,18.83
2023-02-11T07:50:02.683Z,19.77
2023-02-11T07:52:30.696Z,18.97
2023-02-11T07:54:59.545Z,20.53
2023-02-11T07:57:27.019Z,20.70
2023-02-11T08:00:02.189Z,19.17
2023-02-11T08:02:29.842Z,19.67
2023-02-11T08:04:57.905Z,18.10
2023-02-11T08:07:26.106Z,18.33
2023-02-11T08:09:55.457Z,20.30
2023-02-11T08:12:24.430Z,17.57
2023-02-11T08:14:52.271Z,18.97
2023-02-11T08:17:19.849Z,17.10
2023-02-11T08:19:47.610Z,17.87
2023-02-11T08:22:15.335Z,17.93
2023-02-11T08:24:43.010Z,18.20
2023-02-11T08:27:10.778Z,18.23
2023-02-11T08:29:39.774Z,20.10
2023-02-11T08:32:07.453Z,19.97
2023-02-11T08:34:35.089Z,19.43
2023-02-11T08:37:02.878Z,18.50
2023-02-11T08:39:30.496Z,18.23
2023-02-11T08:41:58.193Z,19.50
2023-02-11T08:44:26.474Z,19.30
2023-02-11T08:46:55.400Z,17.37
2023-02-11T08:49:23.469Z,17.50
2023-02-11T08:51:51.603Z,17.10
2023-02-11T08:54:19.477Z,17.37
2023-02-11T08:56:52.168Z,18.30
2023-02-11T08:59:19.733Z,18.70
2023-02-11T09:01:47.688Z,19.20
2023-02-11T09:04:17.919Z,21.23
2023-02-11T09:06:45.406Z,16.70
2023-02-11T09:09:15.217Z,19.27
2023-02-11T09:11:44.421Z,18.60
2023-02-11T09:14:18.267Z,19.93
2023-02-11T09:16:45.778Z,18.33
2023-02-11T09:19:13.340Z,17.83
2023-02-11T09:21:42.178Z,18.10
2023-02-11T09:24:09.682Z,19.97
2023-02-11T09:26:37.424Z,18.63
2023-02-11T09:29:05.773Z,19.27
2023-02-11T09:31:35.017Z,19.83
2023-02-11T09:34:05.349Z,20.13
2023-02-11T09:36:34.882Z,18.60
2023-02-11T09:39:05.888Z,19.27
2023-02-11T09:42:03.105Z,18.60
2023-02-11T09:44:32.860Z,19.40
2023-02-11T09:47:02.395Z,19.13
2023-02-11T09:49:35.518Z,18.70
2023-02-11T09:52:06.580Z,17.77
2023-02-11T09:54:39.329Z,18.10
2023-02-11T09:57:22.961Z,18.60
2023-02-11T09:59:54.140Z,19.17
2023-02-11T10:02:27.166Z,18.10
2023-02-11T10:05:12.458Z,20.10
2023-02-11T10:07:45.318Z,19.37
2023-02-11T10:10:21.722Z,17.80
2023-02-11T10:13:02.966Z,18.90
2023-02-11T10:15:39.553Z,18.00
2023-02-11T10:18:17.502Z,21.30
2023-02-11T10:20:50.644Z,18.87
2023-02-11T10:23:22.348Z,18.40
2023-02-11T10:25:54.377Z,18.70
2023-02-11T10:28:34.586Z,18.40
2023-02-11T10:31:04.445Z,19.67
2023-02-11T10:33:35.653Z,18.27
2023-02-11T10:36:03.223Z,18.73
2023-02-11T10:38:30.793Z,18.43
2023-02-11T10:40:59.740Z,19.70
2023-02-11T10:43:29.896Z,17.70
2023-02-11T10:45:57.919Z,17.87
2023-02-11T10:48:41.096Z,17.70
2023-02-11T10:51:15.893Z,18.00
2023-02-11T10:53:43.632Z,18.87
2023-02-11T10:56:15.653Z,19.33
2023-02-11T10:58:46.504Z,18.40
2023-02-11T11:01:24.354Z,20.80
2023-02-11T11:03:53.389Z,19.60
2023-02-11T11:06:30.568Z,18.70
2023-02-11T11:08:58.281Z,20.00
2023-02-11T11:11:27.889Z,19.00
2023-02-11T11:13:58.221Z,19.80
2023-02-11T11:16:27.102Z,20.57
2023-02-11T11:19:14.250Z,18.87
2023-02-11T11:21:43.522Z,17.83
2023-02-11T11:24:18.501Z,19.30
2023-02-11T11:26:48.832Z,17.67
2023-02-11T11:29:18.663Z,17.73
2023-02-11T11:31:52.394Z,16.70
2023-02-11T11:34:25.078Z,18.77
2023-02-11T11:36:52.777Z,17.33
2023-02-11T11:39:23.890Z,18.40
2023-02-11T11:41:55.238Z,18.07
2023-02-11T11:44:26.678Z,17.37
2023-02-11T11:47:08.632Z,15.63
2023-02-11T11:49:38.765Z,18.90
2023-02-11T11:52:13.049Z,18.07
2023-02-11T11:54:41.618Z,17.93
2023-02-11T11:57:14.546Z,16.97
2023-02-11T11:59:42.067Z,17.77
2023-02-11T12:02:29.324Z,16.90
2023-02-11T12:05:02.555Z,16.03
2023-02-11T12:07:45.133Z,18.77
2023-02-11T12:10:35.334Z,16.10
2023-02-11T12:13:14.455Z,14.73
2023-02-11T12:15:47.412Z,14.87
2023-02-11T12:18:23.201Z,16.03
2023-02-11T12:21:09.726Z,16.43
2023-02-11T12:23:45.333Z,16.80
2023-02-11T12:26:15.871Z,15.90
2023-02-11T12:28:54.797Z,15.47
2023-02-11T12:31:35.287Z,14.10
2023-02-11T12:34:25.182Z,16.47
2023-02-11T12:37:02.801Z,15.37
2023-02-11T12:39:35.356Z,14.87
2023-02-11T12:42:56.883Z,14.23
2023-02-11T12:45:54.101Z,16.07
2023-02-11T12:48:31.947Z,15.63
2023-02-11T12:51:07.071Z,14.80
2023-02-11T12:53:44.836Z,14.53
2023-02-11T12:56:16.940Z,16.07
2023-02-11T12:58:45.905Z,16.60
2023-02-11T13:01:19.482Z,14.33
2023-02-11T13:03:51.422Z,13.60
2023-02-11T13:06:22.405Z,15.20
2023-02-11T13:08:51.575Z,14.73
2023-02-11T13:11:21.931Z,14.27
2023-02-11T13:13:59.079Z,16.17
2023-02-11T13:16:36.028Z,13.60
2023-02-11T13:19:09.646Z,12.67
2023-02-11T13:21:49.714Z,14.80
2023-02-11T13:24:23.780Z,14.33
2023-02-11T13:26:59.039Z,14.93
2023-02-11T13:29:34.557Z,14.00
2023-02-11T13:32:11.464Z,15.60
2023-02-11T13:34:56.291Z,14.27
2023-02-11T13:37:26.406Z,13.97
2023-02-11T13:39:58.438Z,14.23
2023-02-11T13:42:26.320Z,12.30
2023-02-11T13:44:54.062Z,13.50
2023-02-11T13:47:28.186Z,14.80
2023-02-11T13:49:55.855Z,12.63
2023-02-11T13:52:29.031Z,14.17
2023-02-11T13:54:58.844Z,13.00
2023-02-11T13:57:33.118Z,14.07
2023-02-11T14:00:02.067Z,12.37
2023-02-11T14:02:56.638Z,12.47
2023-02-11T14:05:47.556Z,10.77
2023-02-11T14:08:38.454Z,12.60
2023-02-11T14:11:12.175Z,12.30
2023-02-11T14:14:05.093Z,12.13
2023-02-11T14:16:38.420Z,11.97
2023-02-11T14:19:09.462Z,12.30
2023-02-11T14:21:38.800Z,12.07
2023-02-11T14:24:44.888Z,11.33
2023-02-11T14:27:21.397Z,12.80
2023-02-11T14:29:55.799Z,10.47
2023-02-11T14:32:38.184Z,11.77
2023-02-11T14:35:11.385Z,12.80
2023-02-11T14:37:50.352Z,11.80
2023-02-11T14:40:28.107Z,11.07
2023-02-11T14:42:56.401Z,12.07
2023-02-11T14:45:26.514Z,11.57
2023-02-11T14:47:56.988Z,11.50
2023-02-11T14:50:28.698Z,11.00
2023-02-11T14:52:57.084Z,10.20
2023-02-11T14:55:30.476Z,10.50
2023-02-11T14:58:15.596Z,11.50
2023-02-11T15:00:54.761Z,11.40
2023-02-11T15:03:34.740Z,9.97
2023-02-11T15:06:07.011Z,9.53
2023-02-11T15:08:36.259Z,10.77
2023-02-11T15:11:09.689Z,10.47
2023-02-11T15:13:37.394Z,10.93
2023-02-11T15:16:11.093Z,10.20
2023-02-11T15:18:42.114Z,10.57
2023-02-11T15:21:11.425Z,10.20
2023-02-11T15:23:40.669Z,10.87
2023-02-11T15:26:14.380Z,10.53
2023-02-11T15:28:48.896Z,10.90
2023-02-11T15:31:17.826Z,9.30
2023-02-11T15:33:45.846Z,9.97
2023-02-11T15:36:16.226Z,10.40
2023-02-11T15:38:44.124Z,8.70
2023-02-11T15:41:35.099Z,9.50
2023-02-11T15:44:02.826Z,8.57
2023-02-11T15:46:38.089Z,7.77
2023-02-11T15:49:07.959Z,9.33
2023-02-11T15:51:40.003Z,9.70
2023-02-11T15:54:15.695Z,10.47
2023-02-11T15:56:46.083Z,9.70
2023-02-11T15:59:18.282Z,8.33
2023-02-11T16:01:48.449Z,9.13
2023-02-11T16:04:18.689Z,8.10
2023-02-11T16:06:48.662Z,7.77
2023-02-11T16:09:26.068Z,8.40
2023-02-11T16:12:03.511Z,9.30
2023-02-11T16:14:39.197Z,7.73
2023-02-11T16:17:10.560Z,6.90
2023-02-11T16:19:49.465Z,8.03
2023-02-11T16:22:20.702Z,8.20
2023-02-11T16:24:49.639Z,8.80
2023-02-11T16:27:25.353Z,8.67
2023-02-11T16:29:53.374Z,7.83
2023-02-11T16:32:23.900Z,8.20
2023-02-11T16:34:51.816Z,9.37
2023-02-11T16:37:24.722Z,9.17
2023-02-11T16:39:54.802Z,9.60
2023-02-11T16:42:23.341Z,9.53
2023-02-11T16:44:51.047Z,8.90
2023-02-11T16:47:21.561Z,9.43
2023-02-11T16:49:52.241Z,9.67
2023-02-11T16:52:25.390Z,9.23
2023-02-11T16:54:55.130Z,10.17
2023-02-11T16:57:24.602Z,10.33
2023-02-11T16:59:53.077Z,12.70
2023-02-11T17:02:24.771Z,11.57
2023-02-11T17:04:53.313Z,11.20
2023-02-11T17:07:22.840Z,11.73
2023-02-11T17:09:51.652Z,10.40
2023-02-11T17:12:19.135Z,11.40
2023-02-11T17:14:46.819Z,10.60
2023-02-11T17:17:14.578Z,10.17
2023-02-11T17:19:42.080Z,12.37
2023-02-11T17:22:10.990Z,13.70
2023-02-11T17:24:39.849Z,11.97
2023-02-11T17:27:07.308Z,13.20
2023-02-11T17:30:22.700Z,11.93
2023-02-11T17:32:50.692Z,11.17
2023-02-11T17:35:18.448Z,13.00
2023-02-11T17:37:45.998Z,13.03
2023-02-11T17:40:16.053Z,12.87
2023-02-11T17:42:43.626Z,12.43
2023-02-11T17:45:13.098Z,11.97
2023-02-11T17:47:40.551Z,14.00
2023-02-11T17:50:09.358Z,15.30
2023-02-11T17:52:37.829Z,15.00
2023-02-11T17:55:06.756Z,13.33
2023-02-11T17:57:35.660Z,14.57
2023-02-11T18:00:03.178Z,14.20
2023-02-11T18:02:30.660Z,14.50
2023-02-11T18:04:58.746Z,13.90
2023-02-11T18:07:26.800Z,13.37
2023-02-11T18:09:54.375Z,12.77
2023-02-11T18:12:25.594Z,14.77
2023-02-11T18:14:56.854Z,14.47
2023-02-11T18:17:26.011Z,14.73
2023-02-11T18:19:56.760Z,14.90
2023-02-11T18:22:24.721Z,15.40
2023-02-11T18:24:53.852Z,16.80
2023-02-11T18:27:21.987Z,15.10
2023-02-11T18:29:49.746Z,15.80
2023-02-11T18:32:18.973Z,15.90
2023-02-11T18:34:46.660Z,15.70
2023-02-11T18:37:14.423Z,16.33
2023-02-11T18:39:42.366Z,15.20
2023-02-11T18:42:10.072Z,13.77
2023-02-11T18:44:37.789Z,14.07
2023-02-11T18:47:05.488Z,12.50
2023-02-11T18:49:36.122Z,14.43
2023-02-11T18:52:04.252Z,14.47
2023-02-11T18:54:32.100Z,14.00
2023-02-11T18:57:00.009Z,15.13
2023-02-11T18:59:27.582Z,12.40
2023-02-11T19:01:55.307Z,13.93
2023-02-11T19:04:25.015Z,15.00
2023-02-11T19:06:54.075Z,15.90
2023-02-11T19:09:22.130Z,14.33
2023-02-11T19:11:50.554Z,13.53
2023-02-11T19:14:21.724Z,12.83
2023-02-11T19:16:50.600Z,14.30
2023-02-11T19:19:18.620Z,17.67
2023-02-11T19:21:47.387Z,14.83
2023-02-11T19:24:18.896Z,13.80
2023-02-11T19:26:47.438Z,14.33
2023-02-11T19:29:15.357Z,14.57
2023-02-11T19:31:43.800Z,13.53
2023-02-11T19:34:13.358Z,13.70
2023-02-11T19:36:41.055Z,13.00
2023-02-11T19:39:08.746Z,13.40
2023-02-11T19:41:38.138Z,15.07
2023-02-11T19:44:06.550Z,13.33
2023-02-11T19:46:36.948Z,13.37
2023-02-11T19:49:05.604Z,13.40
2023-02-11T19:51:35.599Z,14.30
2023-02-11T19:54:03.269Z,14.20
2023-02-11T19:56:30.867Z,13.80
2023-02-11T19:58:59.802Z,12.70
2023-02-11T20:01:27.479Z,13.60
2023-02-11T20:03:57.283Z,13.70
2023-02-11T20:06:26.623Z,14.07
2023-02-11T20:08:58.004Z,13.00
2023-02-11T20:11:26.856Z,13.93
2023-02-11T20:13:54.606Z,14.63
2023-02-11T20:16:40.658Z,14.30
2023-02-11T20:19:16.749Z,14.07
2023-02-11T20:21:47.662Z,14.53
2023-02-11T20:24:15.706Z,14.70
2023-02-11T20:26:45.258Z,13.37
2023-02-11T20:29:12.968Z,13.50
2023-02-11T20:31:42.603Z,12.53
2023-02-11T20:34:11.093Z,15.30
2023-02-11T20:36:40.386Z,14.47
2023-02-11T20:39:08.780Z,14.77
2023-02-11T20:41:39.628Z,14.83
2023-02-11T20:44:09.006Z,13.60
2023-02-11T20:46:39.849Z,14.37
2023-02-11T20:49:09.114Z,14.10
2023-02-11T20:51:37.322Z,13.93
2023-02-11T20:54:06.639Z,15.07
2023-02-11T20:56:36.593Z,13.63
2023-02-11T20:59:05.754Z,13.90
2023-02-11T21:01:34.598Z,13.83
2023-02-11T21:04:06.668Z,14.73
2023-02-11T21:06:37.649Z,13.67
2023-02-11T21:09:06.291Z,13.27
2023-02-11T21:11:34.014Z,14.83
2023-02-11T21:14:03.584Z,15.20
2023-02-11T21:16:31.470Z,13.37
2023-02-11T21:19:00.465Z,13.57
2023-02-11T21:21:28.342Z,14.23
2023-02-11T21:24:00.515Z,13.60
2023-02-11T21:26:28.101Z,14.50
2023-02-11T21:28:56.038Z,13.50
2023-02-11T21:31:26.529Z,14.30
2023-02-11T21:33:55.229Z,13.03
2023-02-11T21:36:23.363Z,15.43
2023-02-11T21:38:51.209Z,12.70
2023-02-11T21:41:22.398Z,13.20
2023-02-11T21:43:51.077Z,15.87
2023-02-11T21:46:19.653Z,12.30
2023-02-11T21:48:47.468Z,13.30
2023-02-11T21:51:16.650Z,12.97
2023-02-11T21:53:44.474Z,14.90
2023-02-11T21:56:13.551Z,13.07
2023-02-11T21:58:44.708Z,14.90
2023-02-11T22:01:14.299Z,13.33
2023-02-11T22:03:44.172Z,13.60
2023-02-11T22:06:14.567Z,13.60
2023-02-11T22:08:42.786Z,13.83
2023-02-11T22:11:12.277Z,13.70
2023-02-11T22:13:44.652Z,15.67
2023-02-11T22:16:14.124Z,13.93
2023-02-11T22:18:44.472Z,14.50
2023-02-11T22:21:14.257Z,12.70
2023-02-11T22:23:42.096Z,12.70
2023-02-11T22:26:11.284Z,13.20
2023-02-11T22:28:40.562Z,11.80
2023-02-11T22:31:12.715Z,12.57
2023-02-11T22:33:40.696Z,12.13
2023-02-11T22:36:11.308Z,10.67
2023-02-11T22:38:39.246Z,12.23
2023-02-11T22:41:08.985Z,13.63
2023-02-11T22:43:38.159Z,12.30
2023-02-11T22:46:07.676Z,12.90
2023-02-11T22:48:36.883Z,14.20
2023-02-11T22:51:06.207Z,15.00
2023-02-11T22:53:34.398Z,15.33
2023-02-11T22:56:07.061Z,15.30
2023-02-11T22:58:36.164Z,13.80
2023-02-11T23:01:04.595Z,15.37
2023-02-11T23:03:32.683Z,15.03
2023-02-11T23:06:02.586Z,14.80
2023-02-11T23:08:31.548Z,13.47
2023-02-11T23:11:05.662Z,15.20
2023-02-11T23:13:34.944Z,13.60
2023-02-11T23:16:04.737Z,13.17
2023-02-11T23:18:32.366Z,14.90
2023-02-11T23:21:06.580Z,12.03
2023-02-11T23:23:34.354Z,13.00
2023-02-11T23:26:02.381Z,12.13
2023-02-11T23:28:31.627Z,13.77
2023-02-11T23:30:59.400Z,12.07
2023-02-11T23:33:27.128Z,12.00
2023-02-11T23:35:55.094Z,14.30
2023-02-11T23:38:24.321Z,13.80
2023-02-11T23:40:51.833Z,11.67
2023-02-11T23:43:19.421Z,13.27
2023-02-11T23:45:48.102Z,12.60
2023-02-11T23:48:15.733Z,12.67
2023-02-11T23:50:44.614Z,14.50
2023-02-11T23:53:12.649Z,11.90
2023-02-11T23:55:42.811Z,11.10
2023-02-11T23:58:10.690Z,11.80
